Terminal Aerodrome Forecast
Issued by NWS Brownsville, TX

Home | Current Version | Previous Version | Text Only | Print | Product List | Glossary On
Versions: 1 2 3 4 5 6 7 8 9 10 11 12 13 14 15 16
000
FTUS44 KBRO 201700
TAFHRL
TAF
KHRL 201733Z 2018/2118 17017G24KT P6SM SCT040
     FM210300 15012G18KT P6SM SKC
     FM210800 14010KT P6SM FEW025
     FM211500 17017G25KT P6SM FEW040 SCT250=

USA.gov is the U.S. government's official web portal to all federal, state and local government web resources and services.